createdAt,value
2018-09-25T00:06:04.195Z,21.8
2018-09-25T00:16:06.100Z,21.7
2018-09-25T00:26:07.917Z,21.7
2018-09-25T00:36:09.950Z,21.6
2018-09-25T00:46:11.394Z,21.6
2018-09-25T00:56:13.518Z,21.5
2018-09-25T01:06:14.939Z,21.5
2018-09-25T01:16:16.545Z,21.5
2018-09-25T01:26:18.576Z,21.5
2018-09-25T01:36:20.209Z,21.4
2018-09-25T01:46:22.320Z,21.4
2018-09-25T01:56:24.407Z,21.4
2018-09-25T02:06:26.633Z,21.4
2018-09-25T02:16:28.488Z,21.4
2018-09-25T02:26:29.982Z,21.4
2018-09-25T02:36:31.781Z,21.3
2018-09-25T02:46:33.724Z,21.3
2018-09-25T02:56:35.453Z,21.3
2018-09-25T03:06:37.301Z,21.2
2018-09-25T03:16:39.862Z,21.2
2018-09-25T03:26:41.987Z,21.2
2018-09-25T03:36:43.689Z,21.2
2018-09-25T03:46:46.040Z,21.2
2018-09-25T03:56:47.818Z,21.2
2018-09-25T04:06:49.862Z,21.2
2018-09-25T04:16:51.756Z,21.2
2018-09-25T04:26:53.730Z,21.1
2018-09-25T04:36:55.411Z,21.1
2018-09-25T04:46:57.339Z,21.1
2018-09-25T04:56:59.245Z,21.2
2018-09-25T05:07:01.004Z,21.3
2018-09-25T05:17:02.920Z,21.4
2018-09-25T05:27:04.853Z,21.4
2018-09-25T05:37:06.675Z,21.5
2018-09-25T05:47:08.906Z,21.6
2018-09-25T05:57:10.446Z,21.6
2018-09-25T06:07:11.903Z,21.7
2018-09-25T06:17:13.748Z,21.8
2018-09-25T06:27:15.613Z,21.6
2018-09-25T06:37:17.446Z,21.9
2018-09-25T06:47:19.638Z,22.1
2018-09-25T06:57:21.321Z,22.3
2018-09-25T07:07:22.908Z,22.6
2018-09-25T07:17:25.160Z,22.7
2018-09-25T07:27:26.843Z,22.9
2018-09-25T07:37:28.668Z,23.1
2018-09-25T07:47:30.440Z,23.2
2018-09-25T07:57:32.520Z,23.1
2018-09-25T08:07:34.193Z,23.2
2018-09-25T08:17:36.030Z,23.3
2018-09-25T08:27:37.763Z,23.3
2018-09-25T08:37:40.071Z,23.3
2018-09-25T08:47:41.539Z,23.4
2018-09-25T08:57:43.783Z,23.5
2018-09-25T09:07:45.506Z,23.6
2018-09-25T09:17:47.282Z,23.6
2018-09-25T09:27:49.181Z,23.7
2018-09-25T09:37:51.068Z,23.6
2018-09-25T09:47:52.883Z,23.6
2018-09-25T09:57:54.721Z,23.5
2018-09-25T10:07:56.266Z,23.4
2018-09-25T10:17:58.066Z,23.5
2018-09-25T10:27:59.494Z,23.5
2018-09-25T10:38:01.626Z,23.6
2018-09-25T10:48:03.657Z,23.6
2018-09-25T10:58:05.508Z,23.6
2018-09-25T11:08:07.478Z,23.6
2018-09-25T11:18:08.981Z,23.7
2018-09-25T11:28:11.508Z,23.8
2018-09-25T11:38:13.068Z,23.9
2018-09-25T11:48:14.679Z,23.7
2018-09-25T11:58:16.774Z,23.8
2018-09-25T12:08:18.981Z,23.8
2018-09-25T12:18:20.636Z,23.8
2018-09-25T12:28:22.372Z,23.7
2018-09-25T12:38:24.500Z,23.7
2018-09-25T12:48:26.352Z,23.7
2018-09-25T12:58:28.305Z,23.6
2018-09-25T13:08:30.394Z,23.7
2018-09-25T13:18:32.300Z,23.6
2018-09-25T13:28:33.874Z,23.6
2018-09-25T13:38:36.037Z,23.5
2018-09-25T13:48:37.985Z,23.5
2018-09-25T13:58:39.539Z,23.5
2018-09-25T14:08:41.638Z,23.6
2018-09-25T14:18:43.653Z,23.6
2018-09-25T14:28:45.724Z,23.6
2018-09-25T14:38:47.881Z,23.6
2018-09-25T14:48:50.248Z,23.6
2018-09-25T14:58:52.048Z,23.6
2018-09-25T15:08:54.214Z,23.7
2018-09-25T15:18:56.272Z,23.7
2018-09-25T15:28:57.920Z,23.7
2018-09-25T15:38:59.945Z,23.7
2018-09-25T15:49:01.365Z,23.7
2018-09-25T15:59:03.357Z,23.8
2018-09-25T16:09:04.810Z,23.8
2018-09-25T16:19:06.810Z,23.9
2018-09-25T16:29:09.076Z,24
2018-09-25T16:39:10.467Z,24.1
2018-09-25T16:49:12.267Z,24.2
2018-09-25T16:59:14.285Z,24.3
2018-09-25T17:09:16.676Z,24.2
2018-09-25T17:19:18.419Z,24.3
2018-09-25T17:29:20.560Z,24.3
2018-09-25T17:39:23.002Z,24.1
2018-09-25T17:49:24.536Z,24
2018-09-25T17:59:26.697Z,23.9
2018-09-25T18:09:28.548Z,23.9
2018-09-25T18:19:31.032Z,23.8
2018-09-25T18:29:33.193Z,23.7
2018-09-25T18:39:35.349Z,23.7
2018-09-25T18:49:37.675Z,23.6
2018-09-25T18:59:39.448Z,23.6
2018-09-25T19:09:41.219Z,23.6
2018-09-25T19:19:42.784Z,23.6
2018-09-25T19:29:44.528Z,23.5
2018-09-25T19:39:46.495Z,23.5
2018-09-25T19:49:48.348Z,23.4
2018-09-25T19:59:50.445Z,23.1
2018-09-25T20:09:52.063Z,22.9
2018-09-25T20:19:54.033Z,22.7
2018-09-25T20:29:55.878Z,22.6
2018-09-25T20:39:57.632Z,22.6
2018-09-25T20:49:59.156Z,22.5
2018-09-25T21:00:00.725Z,22.4
2018-09-25T21:10:02.413Z,22.3
2018-09-25T21:20:04.058Z,22.2
2018-09-25T21:30:05.998Z,22.1
2018-09-25T21:40:07.804Z,22.1
2018-09-25T21:50:09.507Z,22
2018-09-25T22:00:11.278Z,21.9
2018-09-25T22:10:13.432Z,21.9
2018-09-25T22:20:15.546Z,21.8
2018-09-25T22:30:17.468Z,21.7
2018-09-25T22:40:19.592Z,21.7
2018-09-25T22:50:21.633Z,21.6
2018-09-25T23:00:23.291Z,21.6
2018-09-25T23:10:25.217Z,21.6
2018-09-25T23:20:26.863Z,21.5
2018-09-25T23:30:28.416Z,21.5
2018-09-25T23:40:29.991Z,21.5
2018-09-25T23:50:31.447Z,21.5
